This is the latest recevied weather packets stored in our database for station/object IW1EYZ-3. If no packets are shown the sender has not sent any weather packets the latest 10 day(s).
| Time | Temp. | Humidity | Pressure | Rain* | Wind** | Luminosity | Snow |
|---|---|---|---|---|---|---|---|
| 1777334897 | 15.56° C | 76% | 1018.6 hPa | - | - | - | - |
| 1777333696 | 15.56° C | 76% | 1018.8 hPa | - | - | - | - |
| 1777332496 | 15.56° C | 76% | 1018.9 hPa | - | - | - | - |
| 1777331296 | 16.11° C | 77% | 1018.9 hPa | - | - | - | - |
| 1777330095 | 16.11° C | 76% | 1019 hPa | - | - | - | - |
| 1777328895 | 16.11° C | 76% | 1019 hPa | - | - | - | - |
| 1777327695 | 16.11° C | 75% | 1019 hPa | - | - | - | - |
| 1777326494 | 16.11° C | 75% | 1018.9 hPa | - | - | - | - |
| 1777325294 | 16.67° C | 74% | 1019 hPa | - | - | - | - |
| 1777324094 | 16.67° C | 73% | 1019 hPa | - | - | - | - |
| 1777322893 | 16.67° C | 73% | 1019 hPa | - | - | - | - |
| 1777321693 | 17.22° C | 72% | 1019.1 hPa | - | - | - | - |
| 1777320493 | 17.22° C | 70% | 1019.1 hPa | - | - | - | - |
| 1777319293 | 17.22° C | 70% | 1019.1 hPa | - | - | - | - |
| 1777318092 | 17.78° C | 69% | 1019.2 hPa | - | - | - | - |
| 1777316892 | 17.78° C | 69% | 1019.1 hPa | - | - | - | - |
| 1777315692 | 17.78° C | 68% | 1019 hPa | - | - | - | - |
| 1777314491 | 17.78° C | 68% | 1018.8 hPa | - | - | - | - |
| 1777313291 | 18.33° C | 65% | 1018.8 hPa | - | - | - | - |
| 1777312091 | 18.89° C | 65% | 1018.6 hPa | - | - | - | - |
| 1777310890 | 19.44° C | 62% | 1018.6 hPa | - | - | - | - |
| 1777309690 | 20.56° C | 59% | 1018.4 hPa | - | - | - | - |
| 1777308490 | 21.11° C | 56% | 1018.5 hPa | - | - | - | - |
| 1777307350 | 27.78° C | 37% | 1018.5 hPa | - | - | - | - |
| 1777306149 | 20.56° C | 57% | 1018.8 hPa | - | - | - | - |
* Rain since midnight (hover to see other rain measurements)
** Current wind speed in m/s (hover to see current wind gust speed)